sensor_id;sensor_type;location;lat;lon;timestamp;pressure;altitude;pressure_sealevel;temperature
15607;BMP180;7865;50.918;4.510;2023-02-11T00:00:53;103011.00;;;5.40
15607;BMP180;7865;50.918;4.510;2023-02-11T00:05:57;102993.00;;;5.30
15607;BMP180;7865;50.918;4.510;2023-02-11T00:10:59;103015.00;;;5.20
15607;BMP180;7865;50.918;4.510;2023-02-11T00:16:08;103009.00;;;5.10
15607;BMP180;7865;50.918;4.510;2023-02-11T00:21:16;102999.00;;;5.00
15607;BMP180;7865;50.918;4.510;2023-02-11T00:26:24;102999.00;;;4.90
15607;BMP180;7865;50.918;4.510;2023-02-11T00:31:26;103007.00;;;4.90
15607;BMP180;7865;50.918;4.510;2023-02-11T00:36:29;103005.00;;;4.80
15607;BMP180;7865;50.918;4.510;2023-02-11T00:41:31;102997.00;;;4.80
15607;BMP180;7865;50.918;4.510;2023-02-11T00:46:33;102981.00;;;4.80
15607;BMP180;7865;50.918;4.510;2023-02-11T00:51:35;102975.00;;;4.80
15607;BMP180;7865;50.918;4.510;2023-02-11T00:56:37;102956.00;;;4.80
15607;BMP180;7865;50.918;4.510;2023-02-11T01:01:39;102950.00;;;4.70
15607;BMP180;7865;50.918;4.510;2023-02-11T01:06:43;102945.00;;;4.80
15607;BMP180;7865;50.918;4.510;2023-02-11T01:11:45;102952.00;;;5.00
15607;BMP180;7865;50.918;4.510;2023-02-11T01:16:47;102956.00;;;5.10
15607;BMP180;7865;50.918;4.510;2023-02-11T01:21:49;102960.00;;;5.10
15607;BMP180;7865;50.918;4.510;2023-02-11T01:26:55;102961.00;;;5.10
15607;BMP180;7865;50.918;4.510;2023-02-11T01:31:59;102969.00;;;5.10
15607;BMP180;7865;50.918;4.510;2023-02-11T01:37:01;102957.00;;;5.10
15607;BMP180;7865;50.918;4.510;2023-02-11T01:42:03;102967.00;;;5.10
15607;BMP180;7865;50.918;4.510;2023-02-11T01:47:06;102966.00;;;5.00
15607;BMP180;7865;50.918;4.510;2023-02-11T01:52:15;102974.00;;;5.00
15607;BMP180;7865;50.918;4.510;2023-02-11T01:57:22;102982.00;;;5.00
15607;BMP180;7865;50.918;4.510;2023-02-11T02:07:48;102980.00;;;5.30
15607;BMP180;7865;50.918;4.510;2023-02-11T02:12:50;102974.00;;;5.40
15607;BMP180;7865;50.918;4.510;2023-02-11T02:18:02;102964.00;;;5.50
15607;BMP180;7865;50.918;4.510;2023-02-11T02:23:41;102965.00;;;5.60
15607;BMP180;7865;50.918;4.510;2023-02-11T02:29:35;102951.00;;;5.60
15607;BMP180;7865;50.918;4.510;2023-02-11T02:39:50;102948.00;;;5.70
15607;BMP180;7865;50.918;4.510;2023-02-11T02:44:54;102940.00;;;5.70
15607;BMP180;7865;50.918;4.510;2023-02-11T02:49:56;102956.00;;;5.70
15607;BMP180;7865;50.918;4.510;2023-02-11T03:00:36;102946.00;;;5.80
15607;BMP180;7865;50.918;4.510;2023-02-11T03:06:02;102955.00;;;5.80
15607;BMP180;7865;50.918;4.510;2023-02-11T03:11:07;102951.00;;;5.80
15607;BMP180;7865;50.918;4.510;2023-02-11T03:16:20;102947.00;;;5.80
15607;BMP180;7865;50.918;4.510;2023-02-11T03:21:23;102943.00;;;5.90
15607;BMP180;7865;50.918;4.510;2023-02-11T03:26:36;102940.00;;;5.90
15607;BMP180;7865;50.918;4.510;2023-02-11T03:31:50;102940.00;;;5.90
15607;BMP180;7865;50.918;4.510;2023-02-11T03:36:56;102932.00;;;5.90
15607;BMP180;7865;50.918;4.510;2023-02-11T03:42:01;102936.00;;;5.90
15607;BMP180;7865;50.918;4.510;2023-02-11T03:47:07;102939.00;;;6.00
15607;BMP180;7865;50.918;4.510;2023-02-11T03:52:10;102943.00;;;6.00
15607;BMP180;7865;50.918;4.510;2023-02-11T03:57:13;102942.00;;;6.00
15607;BMP180;7865;50.918;4.510;2023-02-11T04:02:15;102939.00;;;6.10
15607;BMP180;7865;50.918;4.510;2023-02-11T04:07:17;102942.00;;;6.10
15607;BMP180;7865;50.918;4.510;2023-02-11T04:12:19;102945.00;;;6.10
15607;BMP180;7865;50.918;4.510;2023-02-11T04:17:21;102946.00;;;6.10
15607;BMP180;7865;50.918;4.510;2023-02-11T04:22:23;102963.00;;;6.10
15607;BMP180;7865;50.918;4.510;2023-02-11T04:27:25;102955.00;;;6.10
15607;BMP180;7865;50.918;4.510;2023-02-11T04:32:27;102958.00;;;6.10
15607;BMP180;7865;50.918;4.510;2023-02-11T04:37:29;102968.00;;;6.10
15607;BMP180;7865;50.918;4.510;2023-02-11T04:42:31;102968.00;;;6.10
15607;BMP180;7865;50.918;4.510;2023-02-11T04:47:33;102963.00;;;6.10
15607;BMP180;7865;50.918;4.510;2023-02-11T04:52:35;102946.00;;;6.10
15607;BMP180;7865;50.918;4.510;2023-02-11T04:57:37;102941.00;;;6.10
15607;BMP180;7865;50.918;4.510;2023-02-11T05:02:39;102931.00;;;6.10
15607;BMP180;7865;50.918;4.510;2023-02-11T05:07:40;102931.00;;;6.10
15607;BMP180;7865;50.918;4.510;2023-02-11T05:12:42;102935.00;;;6.10
15607;BMP180;7865;50.918;4.510;2023-02-11T05:17:44;102931.00;;;6.10
15607;BMP180;7865;50.918;4.510;2023-02-11T05:22:46;102925.00;;;6.20
15607;BMP180;7865;50.918;4.510;2023-02-11T05:27:48;102917.00;;;6.20
15607;BMP180;7865;50.918;4.510;2023-02-11T05:32:50;102926.00;;;6.20
15607;BMP180;7865;50.918;4.510;2023-02-11T05:37:52;102918.00;;;6.20
15607;BMP180;7865;50.918;4.510;2023-02-11T05:42:55;102909.00;;;6.20
15607;BMP180;7865;50.918;4.510;2023-02-11T05:47:57;102909.00;;;6.20
15607;BMP180;7865;50.918;4.510;2023-02-11T05:52:59;102914.00;;;6.20
15607;BMP180;7865;50.918;4.510;2023-02-11T05:58:01;102912.00;;;6.30
15607;BMP180;7865;50.918;4.510;2023-02-11T06:03:03;102919.00;;;6.30
15607;BMP180;7865;50.918;4.510;2023-02-11T06:08:05;102924.00;;;6.30
15607;BMP180;7865;50.918;4.510;2023-02-11T06:13:07;102923.00;;;6.30
15607;BMP180;7865;50.918;4.510;2023-02-11T06:18:09;102922.00;;;6.30
15607;BMP180;7865;50.918;4.510;2023-02-11T06:23:11;102911.00;;;6.30
15607;BMP180;7865;50.918;4.510;2023-02-11T06:28:13;102914.00;;;6.30
15607;BMP180;7865;50.918;4.510;2023-02-11T06:33:15;102912.00;;;6.30
15607;BMP180;7865;50.918;4.510;2023-02-11T06:38:17;102914.00;;;6.30
15607;BMP180;7865;50.918;4.510;2023-02-11T06:43:19;102921.00;;;6.30
15607;BMP180;7865;50.918;4.510;2023-02-11T06:48:22;102927.00;;;6.30
15607;BMP180;7865;50.918;4.510;2023-02-11T06:53:24;102922.00;;;6.40
15607;BMP180;7865;50.918;4.510;2023-02-11T06:58:25;102929.00;;;6.40
15607;BMP180;7865;50.918;4.510;2023-02-11T07:03:29;102924.00;;;6.40
15607;BMP180;7865;50.918;4.510;2023-02-11T07:08:35;102927.00;;;6.40
15607;BMP180;7865;50.918;4.510;2023-02-11T07:13:37;102939.00;;;6.40
15607;BMP180;7865;50.918;4.510;2023-02-11T07:18:39;102930.00;;;6.40
15607;BMP180;7865;50.918;4.510;2023-02-11T07:23:42;102934.00;;;6.50
15607;BMP180;7865;50.918;4.510;2023-02-11T07:28:44;102940.00;;;6.50
15607;BMP180;7865;50.918;4.510;2023-02-11T07:33:46;102947.00;;;6.60
15607;BMP180;7865;50.918;4.510;2023-02-11T07:38:49;102958.00;;;6.60
15607;BMP180;7865;50.918;4.510;2023-02-11T07:43:51;102972.00;;;6.70
15607;BMP180;7865;50.918;4.510;2023-02-11T07:48:54;102967.00;;;6.70
15607;BMP180;7865;50.918;4.510;2023-02-11T07:53:58;102983.00;;;6.80
15607;BMP180;7865;50.918;4.510;2023-02-11T07:59:01;102983.00;;;6.80
15607;BMP180;7865;50.918;4.510;2023-02-11T08:04:04;102983.00;;;6.90
15607;BMP180;7865;50.918;4.510;2023-02-11T08:09:07;102989.00;;;6.90
15607;BMP180;7865;50.918;4.510;2023-02-11T08:14:11;102993.00;;;7.00
15607;BMP180;7865;50.918;4.510;2023-02-11T08:19:14;103013.00;;;7.00
15607;BMP180;7865;50.918;4.510;2023-02-11T08:24:16;103009.00;;;7.00
15607;BMP180;7865;50.918;4.510;2023-02-11T08:29:18;103005.00;;;7.10
15607;BMP180;7865;50.918;4.510;2023-02-11T08:34:20;103005.00;;;7.10
15607;BMP180;7865;50.918;4.510;2023-02-11T08:39:22;103016.00;;;7.20
15607;BMP180;7865;50.918;4.510;2023-02-11T08:44:24;103020.00;;;7.20
15607;BMP180;7865;50.918;4.510;2023-02-11T08:49:26;103021.00;;;7.20
15607;BMP180;7865;50.918;4.510;2023-02-11T08:54:29;103022.00;;;7.30
15607;BMP180;7865;50.918;4.510;2023-02-11T08:59:31;103034.00;;;7.30
15607;BMP180;7865;50.918;4.510;2023-02-11T09:04:33;103021.00;;;7.30
15607;BMP180;7865;50.918;4.510;2023-02-11T09:09:35;103038.00;;;7.30
15607;BMP180;7865;50.918;4.510;2023-02-11T09:14:37;103049.00;;;7.40
15607;BMP180;7865;50.918;4.510;2023-02-11T09:19:39;103038.00;;;7.50
15607;BMP180;7865;50.918;4.510;2023-02-11T09:24:41;103049.00;;;7.50
15607;BMP180;7865;50.918;4.510;2023-02-11T09:29:43;103038.00;;;7.60
15607;BMP180;7865;50.918;4.510;2023-02-11T09:34:45;103044.00;;;7.70
15607;BMP180;7865;50.918;4.510;2023-02-11T09:39:47;103044.00;;;7.80
15607;BMP180;7865;50.918;4.510;2023-02-11T09:44:49;103046.00;;;8.00
15607;BMP180;7865;50.918;4.510;2023-02-11T09:49:57;103041.00;;;8.20
15607;BMP180;7865;50.918;4.510;2023-02-11T09:55:16;103043.00;;;8.40
15607;BMP180;7865;50.918;4.510;2023-02-11T10:22:19;103059.00;;;9.30
15607;BMP180;7865;50.918;4.510;2023-02-11T10:27:30;103072.00;;;9.50
15607;BMP180;7865;50.918;4.510;2023-02-11T10:37:54;103071.00;;;9.30
15607;BMP180;7865;50.918;4.510;2023-02-11T10:43:02;103083.00;;;9.50
15607;BMP180;7865;50.918;4.510;2023-02-11T10:48:34;103086.00;;;9.20
15607;BMP180;7865;50.918;4.510;2023-02-11T10:53:27;103078.00;;;9.00
15607;BMP180;7865;50.918;4.510;2023-02-11T10:58:32;103087.00;;;9.00
15607;BMP180;7865;50.918;4.510;2023-02-11T11:03:39;103093.00;;;8.90
15607;BMP180;7865;50.918;4.510;2023-02-11T11:08:47;103087.00;;;8.90
15607;BMP180;7865;50.918;4.510;2023-02-11T11:24:21;103085.00;;;9.10
15607;BMP180;7865;50.918;4.510;2023-02-11T11:29:33;103083.00;;;9.30
15607;BMP180;7865;50.918;4.510;2023-02-11T11:34:39;103094.00;;;9.50
15607;BMP180;7865;50.918;4.510;2023-02-11T11:39:48;103077.00;;;9.60
15607;BMP180;7865;50.918;4.510;2023-02-11T11:55:26;103078.00;;;9.80
15607;BMP180;7865;50.918;4.510;2023-02-11T12:21:57;103093.00;;;9.40
15607;BMP180;7865;50.918;4.510;2023-02-11T12:27:15;103103.00;;;9.40
15607;BMP180;7865;50.918;4.510;2023-02-11T12:54:28;103088.00;;;9.50
15607;BMP180;7865;50.918;4.510;2023-02-11T13:04:56;103078.00;;;9.60
15607;BMP180;7865;50.918;4.510;2023-02-11T13:15:14;103068.00;;;9.80
15607;BMP180;7865;50.918;4.510;2023-02-11T13:20:46;103067.00;;;9.60
15607;BMP180;7865;50.918;4.510;2023-02-11T13:25:56;103063.00;;;9.70
15607;BMP180;7865;50.918;4.510;2023-02-11T13:30:59;103066.00;;;9.70
15607;BMP180;7865;50.918;4.510;2023-02-11T13:46:40;103051.00;;;9.60
15607;BMP180;7865;50.918;4.510;2023-02-11T13:51:50;103054.00;;;9.50
15607;BMP180;7865;50.918;4.510;2023-02-11T13:57:20;103050.00;;;9.60
15607;BMP180;7865;50.918;4.510;2023-02-11T14:23:50;103057.00;;;9.50
15607;BMP180;7865;50.918;4.510;2023-02-11T14:29:15;103058.00;;;9.50
15607;BMP180;7865;50.918;4.510;2023-02-11T14:34:42;103055.00;;;9.50
15607;BMP180;7865;50.918;4.510;2023-02-11T14:44:57;103056.00;;;9.50
15607;BMP180;7865;50.918;4.510;2023-02-11T14:50:00;103060.00;;;9.40
15607;BMP180;7865;50.918;4.510;2023-02-11T14:55:17;103067.00;;;9.30
15607;BMP180;7865;50.918;4.510;2023-02-11T15:00:22;103062.00;;;9.30
15607;BMP180;7865;50.918;4.510;2023-02-11T15:05:26;103060.00;;;9.20
15607;BMP180;7865;50.918;4.510;2023-02-11T15:10:50;103060.00;;;9.20
15607;BMP180;7865;50.918;4.510;2023-02-11T15:15:58;103056.00;;;9.20
15607;BMP180;7865;50.918;4.510;2023-02-11T15:21:00;103068.00;;;9.20
15607;BMP180;7865;50.918;4.510;2023-02-11T15:26:11;103063.00;;;9.20
15607;BMP180;7865;50.918;4.510;2023-02-11T15:31:15;103073.00;;;9.10
15607;BMP180;7865;50.918;4.510;2023-02-11T15:36:20;103072.00;;;9.10
15607;BMP180;7865;50.918;4.510;2023-02-11T15:41:36;103081.00;;;9.10
15607;BMP180;7865;50.918;4.510;2023-02-11T15:46:38;103085.00;;;9.00
15607;BMP180;7865;50.918;4.510;2023-02-11T15:51:44;103082.00;;;9.00
15607;BMP180;7865;50.918;4.510;2023-02-11T15:56:50;103076.00;;;8.90
15607;BMP180;7865;50.918;4.510;2023-02-11T16:01:53;103068.00;;;8.90
15607;BMP180;7865;50.918;4.510;2023-02-11T16:06:56;103070.00;;;8.90
15607;BMP180;7865;50.918;4.510;2023-02-11T16:12:04;103076.00;;;8.80
15607;BMP180;7865;50.918;4.510;2023-02-11T16:17:11;103086.00;;;8.80
15607;BMP180;7865;50.918;4.510;2023-02-11T16:22:17;103084.00;;;8.70
15607;BMP180;7865;50.918;4.510;2023-02-11T16:27:28;103087.00;;;8.70
15607;BMP180;7865;50.918;4.510;2023-02-11T16:32:31;103090.00;;;8.60
15607;BMP180;7865;50.918;4.510;2023-02-11T16:37:33;103093.00;;;8.60
15607;BMP180;7865;50.918;4.510;2023-02-11T16:42:36;103099.00;;;8.50
15607;BMP180;7865;50.918;4.510;2023-02-11T16:47:39;103097.00;;;8.40
15607;BMP180;7865;50.918;4.510;2023-02-11T16:52:42;103090.00;;;8.40
15607;BMP180;7865;50.918;4.510;2023-02-11T16:57:47;103108.00;;;8.30
15607;BMP180;7865;50.918;4.510;2023-02-11T17:02:51;103091.00;;;8.30
15607;BMP180;7865;50.918;4.510;2023-02-11T17:07:53;103103.00;;;8.30
15607;BMP180;7865;50.918;4.510;2023-02-11T17:12:55;103108.00;;;8.30
15607;BMP180;7865;50.918;4.510;2023-02-11T17:17:57;103105.00;;;8.20
15607;BMP180;7865;50.918;4.510;2023-02-11T17:22:59;103120.00;;;8.20
15607;BMP180;7865;50.918;4.510;2023-02-11T17:28:05;103110.00;;;8.20
15607;BMP180;7865;50.918;4.510;2023-02-11T17:33:08;103119.00;;;8.20
15607;BMP180;7865;50.918;4.510;2023-02-11T17:38:10;103124.00;;;8.20
15607;BMP180;7865;50.918;4.510;2023-02-11T17:43:12;103135.00;;;8.20
15607;BMP180;7865;50.918;4.510;2023-02-11T17:48:13;103133.00;;;8.20
15607;BMP180;7865;50.918;4.510;2023-02-11T17:53:15;103134.00;;;8.20
15607;BMP180;7865;50.918;4.510;2023-02-11T17:58:17;103144.00;;;8.20
15607;BMP180;7865;50.918;4.510;2023-02-11T18:03:19;103146.00;;;8.20
15607;BMP180;7865;50.918;4.510;2023-02-11T18:08:21;103155.00;;;8.20
15607;BMP180;7865;50.918;4.510;2023-02-11T18:13:23;103157.00;;;8.20
15607;BMP180;7865;50.918;4.510;2023-02-11T18:18:25;103159.00;;;8.20
15607;BMP180;7865;50.918;4.510;2023-02-11T18:23:28;103159.00;;;8.20
15607;BMP180;7865;50.918;4.510;2023-02-11T18:28:30;103164.00;;;8.20
15607;BMP180;7865;50.918;4.510;2023-02-11T18:33:32;103177.00;;;8.10
15607;BMP180;7865;50.918;4.510;2023-02-11T18:38:35;103177.00;;;8.10
15607;BMP180;7865;50.918;4.510;2023-02-11T18:43:38;103169.00;;;8.10
15607;BMP180;7865;50.918;4.510;2023-02-11T18:48:41;103169.00;;;8.10
15607;BMP180;7865;50.918;4.510;2023-02-11T18:53:45;103176.00;;;8.00
15607;BMP180;7865;50.918;4.510;2023-02-11T18:58:47;103168.00;;;8.00
15607;BMP180;7865;50.918;4.510;2023-02-11T19:03:49;103183.00;;;8.00
15607;BMP180;7865;50.918;4.510;2023-02-11T19:08:53;103188.00;;;8.00
15607;BMP180;7865;50.918;4.510;2023-02-11T19:13:58;103199.00;;;8.00
15607;BMP180;7865;50.918;4.510;2023-02-11T19:19:01;103194.00;;;8.00
15607;BMP180;7865;50.918;4.510;2023-02-11T19:24:07;103196.00;;;8.00
15607;BMP180;7865;50.918;4.510;2023-02-11T19:29:09;103195.00;;;7.90
15607;BMP180;7865;50.918;4.510;2023-02-11T19:34:13;103198.00;;;7.90
15607;BMP180;7865;50.918;4.510;2023-02-11T19:39:15;103201.00;;;7.90
15607;BMP180;7865;50.918;4.510;2023-02-11T19:44:17;103206.00;;;7.90
15607;BMP180;7865;50.918;4.510;2023-02-11T19:49:20;103201.00;;;7.90
15607;BMP180;7865;50.918;4.510;2023-02-11T19:54:29;103207.00;;;7.80
15607;BMP180;7865;50.918;4.510;2023-02-11T19:59:31;103211.00;;;7.80
15607;BMP180;7865;50.918;4.510;2023-02-11T20:04:33;103218.00;;;7.80
15607;BMP180;7865;50.918;4.510;2023-02-11T20:09:35;103218.00;;;7.80
15607;BMP180;7865;50.918;4.510;2023-02-11T20:14:37;103213.00;;;7.80
15607;BMP180;7865;50.918;4.510;2023-02-11T20:19:40;103213.00;;;7.80
15607;BMP180;7865;50.918;4.510;2023-02-11T20:24:42;103203.00;;;7.80
15607;BMP180;7865;50.918;4.510;2023-02-11T20:29:44;103215.00;;;7.80
15607;BMP180;7865;50.918;4.510;2023-02-11T20:34:46;103211.00;;;7.80
15607;BMP180;7865;50.918;4.510;2023-02-11T20:39:48;103223.00;;;7.90
15607;BMP180;7865;50.918;4.510;2023-02-11T20:44:51;103224.00;;;7.90
15607;BMP180;7865;50.918;4.510;2023-02-11T20:49:54;103230.00;;;7.90
15607;BMP180;7865;50.918;4.510;2023-02-11T20:54:56;103227.00;;;7.90
15607;BMP180;7865;50.918;4.510;2023-02-11T20:59:58;103239.00;;;7.90
15607;BMP180;7865;50.918;4.510;2023-02-11T21:05:00;103244.00;;;7.90
15607;BMP180;7865;50.918;4.510;2023-02-11T21:10:02;103252.00;;;7.90
15607;BMP180;7865;50.918;4.510;2023-02-11T21:15:04;103257.00;;;7.90
15607;BMP180;7865;50.918;4.510;2023-02-11T21:20:08;103249.00;;;7.90
15607;BMP180;7865;50.918;4.510;2023-02-11T21:25:10;103256.00;;;7.90
15607;BMP180;7865;50.918;4.510;2023-02-11T21:30:13;103265.00;;;7.90
15607;BMP180;7865;50.918;4.510;2023-02-11T21:35:15;103272.00;;;7.80
15607;BMP180;7865;50.918;4.510;2023-02-11T21:40:17;103265.00;;;7.80
15607;BMP180;7865;50.918;4.510;2023-02-11T21:45:24;103270.00;;;7.80
15607;BMP180;7865;50.918;4.510;2023-02-11T21:50:26;103263.00;;;7.80
15607;BMP180;7865;50.918;4.510;2023-02-11T21:55:28;103270.00;;;7.80
15607;BMP180;7865;50.918;4.510;2023-02-11T22:00:31;103277.00;;;7.80
15607;BMP180;7865;50.918;4.510;2023-02-11T22:05:34;103274.00;;;7.70
15607;BMP180;7865;50.918;4.510;2023-02-11T22:10:36;103276.00;;;7.70
15607;BMP180;7865;50.918;4.510;2023-02-11T22:15:38;103273.00;;;7.70
15607;BMP180;7865;50.918;4.510;2023-02-11T22:20:40;103278.00;;;7.70
15607;BMP180;7865;50.918;4.510;2023-02-11T22:25:45;103272.00;;;7.70
15607;BMP180;7865;50.918;4.510;2023-02-11T22:30:55;103279.00;;;7.60
15607;BMP180;7865;50.918;4.510;2023-02-11T22:36:06;103275.00;;;7.60
15607;BMP180;7865;50.918;4.510;2023-02-11T22:41:10;103282.00;;;7.60
15607;BMP180;7865;50.918;4.510;2023-02-11T22:46:15;103269.00;;;7.50
15607;BMP180;7865;50.918;4.510;2023-02-11T22:51:21;103269.00;;;7.50
15607;BMP180;7865;50.918;4.510;2023-02-11T22:56:23;103266.00;;;7.50
15607;BMP180;7865;50.918;4.510;2023-02-11T23:01:32;103273.00;;;7.50
15607;BMP180;7865;50.918;4.510;2023-02-11T23:06:43;103270.00;;;7.50
15607;BMP180;7865;50.918;4.510;2023-02-11T23:11:46;103280.00;;;7.40
15607;BMP180;7865;50.918;4.510;2023-02-11T23:16:49;103291.00;;;7.40
15607;BMP180;7865;50.918;4.510;2023-02-11T23:21:52;103288.00;;;7.40
15607;BMP180;7865;50.918;4.510;2023-02-11T23:26:54;103282.00;;;7.30
15607;BMP180;7865;50.918;4.510;2023-02-11T23:31:55;103289.00;;;7.30
15607;BMP180;7865;50.918;4.510;2023-02-11T23:36:59;103285.00;;;7.40
15607;BMP180;7865;50.918;4.510;2023-02-11T23:42:01;103288.00;;;7.40
15607;BMP180;7865;50.918;4.510;2023-02-11T23:47:03;103281.00;;;7.30
15607;BMP180;7865;50.918;4.510;2023-02-11T23:52:05;103280.00;;;7.30
15607;BMP180;7865;50.918;4.510;2023-02-11T23:57:07;103287.00;;;7.30
